Thunder radar more information blitzortung!


Radar de pluja more information rain snow radar


Visita la nostra xarxa de llocs de meteo:

Template documentation
and downloads

And another site



Extreme low temperature From: 13-12-2017 09:00 Until: 09:59 warning for: Extreme low temperature Level: Yellow info button

Pagina Historial Weather Underground text

Diari Resum February 27, 2016 Unitats:  Mètric    Imperial   Tant
« Previous Dia
SegĂźent Dia »
Diari Setmana Mensual Anual Personalitzada
  Maxima: Minima: Media:
Temperatura: 11.2 °C 4.5 °C 7.3 °C
Punt de rosada: 5.8 °C 1.6 °C 3.3 °C
Humitat: 85 % 62 % 76 %
Wind Speed: 20.4 km/h 0.0 km/h 5.9 km/h
RĂ fegues de vent: 20.9 km/h - -
Vent:- - ESE
Pression baro: 999.9 hPa 986.0 hPa -
Precipitacions: 21.1 mm    
Historical Graphs
 
 
Dades de taula per February 27, 2016
Temps Temperatura Punt de rosada Pression baro Vent Wind Speed RĂ fegues de vent Humitat Rainfall Rate (Hourly)
00:00 8.7 °C 5.8 °C 988.7 hPa East 12.9 km/h 14.5 km/h 82 % 0.0 mm
00:10 8.5 °C 5.6 °C 988.0 hPa East 11.3 km/h 20.9 km/h 82 % 0.0 mm
00:20 8.5 °C 5.4 °C 988.0 hPa East 4.8 km/h 12.9 km/h 81 % 0.0 mm
00:30 8.5 °C 5.6 °C 988.0 hPa ESE 3.2 km/h 9.7 km/h 82 % 0.0 mm
00:40 8.5 °C 5.8 °C 988.0 hPa ESE 3.2 km/h 9.7 km/h 83 % 0.0 mm
00:50 8.5 °C 5.8 °C 988.0 hPa East 1.6 km/h 3.2 km/h 83 % 0.0 mm
01:00 8.5 °C 5.4 °C 988.0 hPa West 3.2 km/h 4.8 km/h 81 % 0.0 mm
01:10 8.2 °C 5.5 °C 987.0 hPa SW 4.8 km/h 9.7 km/h 83 % 0.0 mm
01:20 8.0 °C 5.3 °C 987.0 hPa SW 4.8 km/h 8.0 km/h 83 % 0.0 mm
01:40 7.9 °C 5.4 °C 988.0 hPa SW 4.8 km/h 8.0 km/h 84 % 0.0 mm
01:50 7.7 °C 5.3 °C 988.7 hPa SW 4.8 km/h 8.0 km/h 85 % 0.0 mm
02:00 7.5 °C 4.9 °C 988.7 hPa SW 3.2 km/h 4.8 km/h 84 % 0.0 mm
02:10 7.4 °C 4.9 °C 988.7 hPa SW 3.2 km/h 4.8 km/h 84 % 0.0 mm
02:20 7.0 °C 4.5 °C 988.7 hPa SW 1.6 km/h 4.8 km/h 84 % 0.0 mm
02:30 6.8 °C 4.1 °C 988.7 hPa SW 3.2 km/h 4.8 km/h 83 % 0.0 mm
02:40 6.8 °C 4.1 °C 990.1 hPa Calm   3.2 km/h 83 % 0.0 mm
03:00 6.6 °C 3.7 °C 990.1 hPa Calm   1.6 km/h 82 % 0.0 mm
03:10 6.6 °C 3.7 °C 990.1 hPa WNW 1.6 km/h 1.6 km/h 82 % 0.0 mm
03:20 6.6 °C 3.6 °C 988.7 hPa Calm     81 % 0.0 mm
03:40 7.2 °C 4.2 °C 988.7 hPa Calm   1.6 km/h 81 % 0.0 mm
03:50 7.7 °C 4.7 °C 990.1 hPa Calm   3.2 km/h 81 % 0.0 mm
04:00 7.7 °C 4.3 °C 990.1 hPa Calm   1.6 km/h 79 % 0.0 mm
04:10 7.9 °C 4.5 °C 990.1 hPa Calm     79 % 0.0 mm
04:30 8.2 °C 4.6 °C 990.1 hPa ENE 3.2 km/h 4.8 km/h 78 % 0.0 mm
04:40 8.3 °C 4.5 °C 990.1 hPa ENE 1.6 km/h 9.7 km/h 77 % 0.0 mm
10:47 8.7 °C 2.1 °C 999.9 hPa Calm     63 % 0.0 mm
10:52 8.4 °C 4.4 °C 990.1 hPa East 3.7 km/h 3.7 km/h 76 % 13.0 mm
10:57 8.6 °C 4.6 °C 990.1 hPa East 3.9 km/h 3.9 km/h 76 % 13.0 mm
11:02 8.8 °C 4.8 °C 990.1 hPa NE 3.2 km/h 3.2 km/h 76 % 13.0 mm
11:07 8.9 °C 4.7 °C 990.1 hPa East 5.6 km/h 5.6 km/h 75 % 13.0 mm
11:12 9.1 °C 4.9 °C 990.1 hPa ENE 4.7 km/h 4.7 km/h 75 % 13.0 mm
11:17 9.0 °C 4.6 °C 990.1 hPa NNE 3.9 km/h 4.7 km/h 74 % 13.0 mm
11:22 9.1 °C 4.7 °C 990.1 hPa East 6.1 km/h 6.1 km/h 74 % 13.0 mm
11:27 9.1 °C 4.7 °C 990.1 hPa East 6.1 km/h 6.1 km/h 74 % 13.0 mm
11:32 8.8 °C 4.6 °C 990.1 hPa SW 5.6 km/h   75 % 13.0 mm
11:37 8.6 °C 4.2 °C 990.1 hPa ESE 5.8 km/h 5.8 km/h 74 % 13.0 mm
11:42 8.6 °C 4.4 °C 990.1 hPa Calm     75 % 13.0 mm
11:47 8.5 °C 4.3 °C 990.1 hPa Calm     75 % 13.0 mm
11:52 8.4 °C 4.2 °C 990.1 hPa Calm     75 % 0.0 mm
12:02 8.2 °C 4.2 °C 990.1 hPa NNE 3.9 km/h 3.9 km/h 76 % 0.0 mm
12:07 8.2 °C 4.2 °C 990.1 hPa NW 3.5 km/h   76 % 0.0 mm
12:17 8.2 °C 4.4 °C 990.1 hPa ENE 2.3 km/h 2.3 km/h 77 % 0.0 mm
12:22 8.2 °C 4.6 °C 990.1 hPa NW 2.3 km/h   78 % 0.0 mm
12:27 8.0 °C 4.4 °C 990.1 hPa NE 3.7 km/h 3.7 km/h 78 % 0.0 mm
12:32 8.2 °C 4.6 °C 990.1 hPa NNE 3.7 km/h 3.9 km/h 78 % 0.0 mm
12:37 8.1 °C 4.5 °C 990.1 hPa East 9.0 km/h 9.0 km/h 78 % 0.0 mm
12:42 8.2 °C 4.4 °C 990.1 hPa ENE 7.4 km/h 7.4 km/h 77 % 0.0 mm
12:47 8.6 °C 4.8 °C 990.1 hPa SE 6.1 km/h 6.1 km/h 77 % 0.0 mm
12:52 9.0 °C 5.2 °C 990.1 hPa NE 9.3 km/h 9.3 km/h 77 % 0.0 mm
12:57 9.2 °C 5.2 °C 990.1 hPa ESE 9.3 km/h 9.3 km/h 76 % 0.0 mm
13:02 9.4 °C 5.2 °C 988.7 hPa SW 7.4 km/h 7.4 km/h 75 % 0.0 mm
13:07 9.4 °C 5.0 °C 988.7 hPa NNE 7.4 km/h 7.4 km/h 74 % 0.0 mm
13:12 9.5 °C 5.1 °C 988.7 hPa ENE 9.3 km/h 9.3 km/h 74 % 0.0 mm
13:17 9.6 °C 5.0 °C 988.7 hPa ESE 11.1 km/h 11.1 km/h 73 % 0.0 mm
13:22 9.7 °C 5.1 °C 988.7 hPa South 5.6 km/h 5.6 km/h 73 % 0.0 mm
13:27 9.7 °C 4.7 °C 988.7 hPa ESE 7.4 km/h 7.4 km/h 71 % 0.0 mm
13:32 9.8 °C 4.8 °C 988.0 hPa South 9.3 km/h 9.3 km/h 71 % 0.0 mm
13:37 10.2 °C 5.4 °C 988.0 hPa South 7.4 km/h 7.4 km/h 72 % 0.0 mm
13:42 11.0 °C 5.7 °C 988.0 hPa ESE 14.0 km/h 14.0 km/h 70 % 0.0 mm
13:47 11.2 °C 5.7 °C 988.0 hPa ESE 9.3 km/h 9.3 km/h 69 % 0.0 mm
13:52 11.0 °C 5.5 °C 988.0 hPa SE 7.6 km/h 7.6 km/h 69 % 0.0 mm
13:57 11.1 °C 5.2 °C 988.0 hPa South 13.0 km/h 13.0 km/h 67 % 0.0 mm
14:02 11.0 °C 4.9 °C 988.0 hPa ESE 14.8 km/h 14.8 km/h 66 % 0.0 mm
14:07 10.5 °C 4.6 °C 988.0 hPa SSW 7.4 km/h 7.4 km/h 67 % 0.0 mm
14:17 10.4 °C 4.7 °C 987.0 hPa ESE 13.7 km/h 13.7 km/h 68 % 0.0 mm
14:22 10.5 °C 4.4 °C 987.0 hPa ESE 20.4 km/h 20.4 km/h 66 % 0.0 mm
14:27 10.6 °C 4.3 °C 987.0 hPa SE 16.7 km/h 16.7 km/h 65 % 0.0 mm
14:32 10.6 °C 4.3 °C 988.0 hPa ESE 15.8 km/h 15.8 km/h 65 % 0.0 mm
14:37 10.7 °C 4.2 °C 988.0 hPa ESE 13.0 km/h 13.0 km/h 64 % 0.0 mm
14:42 11.0 °C 4.0 °C 988.0 hPa SE 15.6 km/h 15.6 km/h 62 % 0.0 mm
14:47 10.7 °C 3.7 °C 988.0 hPa ESE 11.1 km/h 11.1 km/h 62 % 0.0 mm
14:52 10.7 °C 3.7 °C 988.0 hPa ENE 9.3 km/h 9.3 km/h 62 % 0.0 mm
14:57 10.7 °C 3.9 °C 988.0 hPa NNE 18.5 km/h 18.5 km/h 63 % 0.0 mm
15:02 10.5 °C 3.7 °C 988.0 hPa South 9.3 km/h 9.3 km/h 63 % 0.0 mm
15:07 10.4 °C 3.7 °C 988.0 hPa ENE 11.1 km/h 11.1 km/h 63 % 0.0 mm
15:12 10.2 °C 3.2 °C 988.0 hPa ESE 14.8 km/h 14.8 km/h 62 % 0.0 mm
15:17 10.0 °C 3.1 °C 988.0 hPa ESE 9.3 km/h 9.3 km/h 62 % 0.0 mm
15:22 10.0 °C 3.3 °C 988.0 hPa South 13.0 km/h 13.0 km/h 63 % 0.0 mm
15:27 9.8 °C 2.8 °C 988.0 hPa ENE 14.8 km/h 15.1 km/h 62 % 0.0 mm
15:32 9.7 °C 3.0 °C 988.0 hPa ESE 10.3 km/h 10.3 km/h 63 % 0.0 mm
15:42 9.4 °C 2.7 °C 988.0 hPa East 11.1 km/h 11.1 km/h 63 % 0.0 mm
15:47 9.4 °C 2.9 °C 988.0 hPa East 9.3 km/h 9.3 km/h 64 % 0.0 mm
15:52 9.3 °C 2.8 °C 988.0 hPa SSE 13.0 km/h 13.0 km/h 64 % 0.0 mm
15:57 9.3 °C 3.1 °C 988.0 hPa ENE 13.0 km/h 13.0 km/h 65 % 0.0 mm
16:02 8.4 °C 2.6 °C 988.7 hPa South 9.3 km/h 9.3 km/h 67 % 0.0 mm
16:07 8.1 °C 2.6 °C 988.7 hPa ENE 5.6 km/h 5.6 km/h 68 % 0.0 mm
16:12 8.1 °C 2.6 °C 988.7 hPa NE 2.6 km/h 2.6 km/h 68 % 0.0 mm
16:17 8.1 °C 2.8 °C 988.0 hPa NE 3.7 km/h 3.7 km/h 69 % 0.0 mm
16:22 8.1 °C 3.2 °C 988.0 hPa NE 3.7 km/h 3.7 km/h 71 % 0.0 mm
16:27 8.1 °C 3.2 °C 988.0 hPa ENE 9.3 km/h 9.3 km/h 71 % 0.0 mm
16:32 8.2 °C 3.1 °C 988.7 hPa NNE 5.0 km/h 5.0 km/h 70 % 0.0 mm
16:37 8.2 °C 2.8 °C 988.7 hPa NE 7.4 km/h 7.4 km/h 69 % 0.0 mm
16:42 8.2 °C 3.1 °C 988.7 hPa ENE 11.1 km/h 11.1 km/h 70 % 0.0 mm
16:47 8.3 °C 2.9 °C 988.7 hPa NE 8.7 km/h 8.7 km/h 69 % 0.0 mm
16:52 8.4 °C 3.1 °C 988.7 hPa ENE 9.3 km/h 9.3 km/h 69 % 0.0 mm
16:57 8.5 °C 2.9 °C 988.7 hPa ENE 9.3 km/h 9.3 km/h 68 % 0.0 mm
17:02 8.5 °C 2.9 °C 988.7 hPa NNE 11.1 km/h 11.1 km/h 68 % 0.0 mm
17:07 8.5 °C 2.7 °C 988.7 hPa ENE 9.5 km/h 9.5 km/h 67 % 0.0 mm
17:12 8.5 °C 2.9 °C 988.7 hPa NNE 5.6 km/h 5.6 km/h 68 % 0.0 mm
17:17 8.5 °C 2.9 °C 988.7 hPa NE 7.4 km/h 7.4 km/h 68 % 0.0 mm
17:22 8.4 °C 3.1 °C 988.7 hPa NNE 7.4 km/h 7.4 km/h 69 % 0.0 mm
17:27 8.3 °C 2.9 °C 988.7 hPa NE 5.6 km/h 5.6 km/h 69 % 0.0 mm
17:37 8.2 °C 3.3 °C 986.0 hPa NNE 9.7 km/h 9.7 km/h 71 % 0.0 mm
17:42 8.0 °C 3.1 °C 986.0 hPa NE 15.8 km/h 15.8 km/h 71 % 0.0 mm
17:47 7.5 °C 2.6 °C 988.7 hPa ENE 13.0 km/h 13.0 km/h 71 % 0.0 mm
17:52 7.1 °C 2.6 °C 988.7 hPa NNE 9.3 km/h 9.3 km/h 73 % 0.0 mm
17:57 7.0 °C 2.5 °C 988.7 hPa NNE 7.4 km/h 7.4 km/h 73 % 0.0 mm
18:02 7.0 °C 2.7 °C 988.7 hPa ESE 9.3 km/h 9.3 km/h 74 % 0.0 mm
18:05 5.3 °C 2.8 °C 992.8 hPa NNE 1.6 km/h 6.4 km/h 84 % 3.0 mm
18:07 6.9 °C 2.6 °C 988.7 hPa NE 3.9 km/h 4.2 km/h 74 % 0.0 mm
18:12 6.9 °C 2.8 °C 988.7 hPa NNE 11.1 km/h 11.1 km/h 75 % 0.0 mm
18:15 5.5 °C 2.8 °C 992.8 hPa NNE 4.8 km/h 4.8 km/h 83 % 0.0 mm
18:17 6.9 °C 2.8 °C 990.1 hPa NNE 9.3 km/h 9.3 km/h 75 % 0.0 mm
18:22 6.9 °C 2.8 °C 990.1 hPa NNE 9.3 km/h 9.3 km/h 75 % 0.0 mm
18:25 5.5 °C 2.8 °C 991.8 hPa NNE 1.6 km/h 3.2 km/h 83 % 0.0 mm
18:27 6.9 °C 2.8 °C 990.1 hPa NNE 9.3 km/h 9.3 km/h 75 % 0.0 mm
18:32 6.9 °C 2.8 °C 990.1 hPa NNE 9.3 km/h 9.3 km/h 75 % 2.0 mm
18:35 5.6 °C 2.9 °C 992.8 hPa NNE 3.2 km/h 6.4 km/h 83 % 0.0 mm
18:37 6.9 °C 2.8 °C 990.1 hPa NNE 9.3 km/h 9.3 km/h 75 % 2.0 mm
18:42 6.9 °C 2.8 °C 990.1 hPa NNE 9.3 km/h 9.3 km/h 75 % 2.0 mm
18:45 5.8 °C 2.9 °C 992.8 hPa NNE 4.8 km/h 4.8 km/h 82 % 0.0 mm
18:47 6.9 °C 2.8 °C 990.1 hPa NNE 9.3 km/h 9.3 km/h 75 % 2.0 mm
18:52 6.9 °C 2.8 °C 990.1 hPa NNE 9.3 km/h 9.3 km/h 75 % 2.0 mm
18:55 5.9 °C 2.9 °C 992.8 hPa NE 3.2 km/h 4.8 km/h 81 % 0.0 mm
18:57 6.9 °C 2.8 °C 990.1 hPa NNE 9.3 km/h 9.3 km/h 75 % 2.0 mm
19:02 6.9 °C 2.8 °C 990.1 hPa NNE 9.3 km/h 9.5 km/h 75 % 2.0 mm
19:05 5.7 °C 2.7 °C 993.8 hPa NE 1.6 km/h 3.2 km/h 81 % 0.0 mm
19:07 6.9 °C 2.8 °C 990.1 hPa NNE 9.3 km/h 9.3 km/h 75 % 2.0 mm
19:15 5.7 °C 2.7 °C 993.8 hPa Calm   4.8 km/h 81 % 0.0 mm
19:17 6.9 °C 2.8 °C 990.1 hPa NE 3.7 km/h 3.7 km/h 75 % 2.0 mm
19:22 6.9 °C 2.8 °C 990.1 hPa ENE 2.6 km/h 2.6 km/h 75 % 2.0 mm
19:25 5.6 °C 2.8 °C 993.8 hPa NNW 3.2 km/h 3.2 km/h 82 % 0.0 mm
19:27 6.9 °C 2.8 °C 990.1 hPa ENE 2.6 km/h 2.6 km/h 75 % 2.0 mm
19:32 6.9 °C 2.8 °C 988.7 hPa ENE 2.6 km/h 2.6 km/h 75 % 0.0 mm
19:35 5.7 °C 2.9 °C 993.8 hPa NW 3.2 km/h 4.8 km/h 82 % 0.0 mm
19:37 6.9 °C 2.8 °C 988.7 hPa ENE 2.6 km/h 2.6 km/h 75 % 0.0 mm
19:42 6.1 °C 2.6 °C 988.7 hPa NNE 9.3 km/h 9.3 km/h 78 % 0.0 mm
19:45 5.8 °C 2.8 °C 993.8 hPa NNE 3.2 km/h 3.2 km/h 81 % 0.0 mm
19:47 6.1 °C 2.6 °C 990.1 hPa WNW 3.7 km/h 3.7 km/h 78 % 0.0 mm
19:52 6.0 °C 2.4 °C 990.1 hPa ENE 3.7 km/h 3.7 km/h 78 % 0.0 mm
19:55 5.8 °C 2.6 °C 993.8 hPa NNE 3.2 km/h 4.8 km/h 80 % 0.0 mm
19:57 6.0 °C 2.4 °C 990.1 hPa West 4.7 km/h 4.7 km/h 78 % 0.0 mm
20:02 6.0 °C 2.4 °C 990.7 hPa ENE 3.7 km/h 3.7 km/h 78 % 0.0 mm
20:05 5.8 °C 2.6 °C 993.8 hPa NNE 1.6 km/h 6.4 km/h 80 % 0.0 mm
20:07 6.0 °C 2.4 °C 990.7 hPa WNW 5.8 km/h 5.8 km/h 78 % 0.0 mm
20:12 6.0 °C 2.4 °C 990.7 hPa NE 5.0 km/h 5.0 km/h 78 % 0.0 mm
20:15 5.7 °C 2.3 °C 993.8 hPa NE 3.2 km/h 3.2 km/h 79 % 0.0 mm
20:17 5.9 °C 2.6 °C 990.7 hPa North 5.6 km/h 5.6 km/h 79 % 0.0 mm
20:22 5.9 °C 2.6 °C 990.7 hPa NNW 5.6 km/h 5.6 km/h 79 % 0.0 mm
20:25 5.7 °C 2.3 °C 993.8 hPa NNE 4.8 km/h 4.8 km/h 79 % 0.0 mm
20:27 5.9 °C 2.6 °C 990.7 hPa WSW 3.7 km/h 3.7 km/h 79 % 3.0 mm
20:32 5.9 °C 2.3 °C 990.7 hPa WNW 1.9 km/h   78 % 3.0 mm
20:35 5.7 °C 2.3 °C 993.8 hPa NE 3.2 km/h 6.4 km/h 79 % 0.0 mm
20:37 5.9 °C 2.6 °C 990.7 hPa SW 4.2 km/h 4.2 km/h 79 % 3.0 mm
20:42 5.8 °C 2.4 °C 990.7 hPa SW 3.7 km/h 3.7 km/h 79 % 3.0 mm
20:45 5.9 °C 2.3 °C 993.8 hPa NE 3.2 km/h 6.4 km/h 78 % 0.0 mm
20:47 5.7 °C 2.3 °C 990.7 hPa SW 5.6 km/h   79 % 3.0 mm
20:52 5.5 °C 2.2 °C 990.7 hPa SW 3.7 km/h 3.7 km/h 79 % 3.0 mm
20:55 5.9 °C 2.3 °C 993.8 hPa NNE 4.8 km/h 6.4 km/h 78 % 0.0 mm
20:57 5.5 °C 2.2 °C 990.7 hPa SW 3.9 km/h 3.9 km/h 79 % 3.0 mm
21:02 5.3 °C 1.9 °C 990.7 hPa WSW 6.1 km/h 6.9 km/h 79 % 3.0 mm
21:05 6.0 °C 2.4 °C 993.8 hPa NNE 3.2 km/h 9.7 km/h 78 % 0.0 mm
21:07 5.2 °C 2.1 °C 990.7 hPa SW 7.4 km/h 7.4 km/h 80 % 3.0 mm
21:12 5.0 °C 2.0 °C 990.7 hPa SSW 7.4 km/h 7.4 km/h 81 % 3.0 mm
21:15 6.0 °C 2.4 °C 993.8 hPa NNE 4.8 km/h 6.4 km/h 78 % 0.0 mm
21:17 4.8 °C 1.8 °C 991.8 hPa SW 3.7 km/h 4.2 km/h 81 % 3.0 mm
21:22 4.7 °C 1.9 °C 991.8 hPa WSW 3.9 km/h 3.9 km/h 82 % 3.0 mm
21:25 6.1 °C 2.6 °C 993.8 hPa NE 3.2 km/h 8.0 km/h 78 % 0.0 mm
21:27 4.6 °C 1.6 °C 991.8 hPa SW 3.9 km/h 3.9 km/h 81 % 0.0 mm
21:32 4.6 °C 1.8 °C 991.8 hPa SW 3.9 km/h 3.9 km/h 82 % 0.0 mm
21:35 6.4 °C 2.7 °C 993.8 hPa NE 8.0 km/h 8.0 km/h 77 % 0.0 mm
21:37 4.6 °C 1.8 °C 991.8 hPa WSW 4.7 km/h 4.7 km/h 82 % 0.0 mm
21:42 4.6 °C 1.8 °C 991.8 hPa WSW 3.7 km/h 3.7 km/h 82 % 0.0 mm
21:47 4.6 °C 1.8 °C 991.8 hPa SW 3.7 km/h 3.7 km/h 82 % 0.0 mm
21:52 4.5 °C 1.9 °C 991.8 hPa SW 1.9 km/h 1.9 km/h 83 % 0.0 mm
21:55 6.6 °C 2.7 °C 993.8 hPa NNE 8.0 km/h 9.7 km/h 76 % 0.0 mm
21:57 4.5 °C 1.7 °C 991.8 hPa WSW 7.4 km/h 7.4 km/h 82 % 0.0 mm
22:02 4.6 °C 1.9 °C 991.8 hPa ESE 5.6 km/h 5.6 km/h 83 % 0.0 mm
22:05 6.6 °C 2.7 °C 993.8 hPa NE 3.2 km/h 9.7 km/h 76 % 0.0 mm
22:07 4.6 °C 1.8 °C 991.8 hPa WSW 3.7 km/h 3.7 km/h 82 % 0.0 mm
22:12 4.5 °C 1.9 °C 991.8 hPa SW 5.6 km/h 5.6 km/h 83 % 0.0 mm
22:15 6.7 °C 2.8 °C 993.8 hPa NE 4.8 km/h 9.7 km/h 76 % 0.0 mm
22:17 4.5 °C 1.9 °C 990.7 hPa WSW 3.7 km/h 3.7 km/h 83 % 0.0 mm
22:22 4.5 °C 1.9 °C 990.7 hPa WSW 1.9 km/h 1.9 km/h 83 % 0.0 mm
22:25 6.7 °C 2.8 °C 993.8 hPa NNE 3.2 km/h 6.4 km/h 76 % 0.0 mm
22:27 4.6 °C 2.1 °C 990.7 hPa WSW 3.2 km/h 3.2 km/h 84 % 0.0 mm
22:32 4.6 °C 1.9 °C 991.8 hPa SW 3.7 km/h 3.7 km/h 83 % 0.0 mm
22:35 6.7 °C 2.8 °C 994.8 hPa NE 4.8 km/h 4.8 km/h 76 % 0.0 mm
22:37 4.5 °C 1.9 °C 991.8 hPa SW 3.7 km/h   83 % 0.0 mm
22:42 4.5 °C 2.1 °C 991.8 hPa Calm     84 % 0.0 mm
22:45 6.8 °C 2.7 °C 994.8 hPa NE 4.8 km/h 4.8 km/h 75 % 0.0 mm
22:47 4.6 °C 1.9 °C 991.8 hPa SW 3.7 km/h 3.7 km/h 83 % 0.0 mm
22:52 4.6 °C 1.9 °C 991.8 hPa WSW 3.7 km/h 3.7 km/h 83 % 0.0 mm
22:55 6.6 °C 2.5 °C 994.8 hPa NE 9.7 km/h 11.3 km/h 75 % 0.0 mm
22:57 4.7 °C 2.1 °C 991.8 hPa WSW 3.7 km/h 3.7 km/h 83 % 0.0 mm
23:02 4.7 °C 2.2 °C 992.8 hPa SW 3.7 km/h 3.7 km/h 84 % 0.0 mm
23:05 6.4 °C 2.5 °C 994.8 hPa NNE 4.8 km/h 8.0 km/h 76 % 0.0 mm
23:07 4.7 °C 2.2 °C 992.8 hPa SW 3.7 km/h 3.9 km/h 84 % 0.0 mm
23:12 4.7 °C 2.2 °C 992.8 hPa WSW 3.7 km/h 3.7 km/h 84 % 0.0 mm
23:15 6.3 °C 2.4 °C 994.8 hPa NE 3.2 km/h 4.8 km/h 76 % 0.0 mm
23:17 4.7 °C 2.2 °C 991.8 hPa SW 1.4 km/h 2.3 km/h 84 % 0.0 mm
23:22 4.7 °C 2.4 °C 991.8 hPa Calm     85 % 0.0 mm
23:25 6.3 °C 2.4 °C 995.8 hPa NE 3.2 km/h 6.4 km/h 76 % 0.0 mm
23:32 5.0 °C 2.7 °C 991.8 hPa NNE 3.7 km/h 3.7 km/h 85 % 0.0 mm
23:35 6.3 °C 2.2 °C 995.8 hPa NE 9.7 km/h 9.7 km/h 75 % 0.0 mm
23:37 5.0 °C 2.7 °C 991.8 hPa NNW 3.7 km/h 3.7 km/h 85 % 0.0 mm
23:42 4.9 °C 2.6 °C 991.8 hPa NNE 1.9 km/h 2.3 km/h 85 % 0.0 mm
23:45 6.2 °C 2.3 °C 995.8 hPa NNE 3.2 km/h 8.0 km/h 76 % 0.0 mm
23:47 5.0 °C 2.7 °C 991.8 hPa NNE 3.2 km/h 3.2 km/h 85 % 0.0 mm
23:52 5.1 °C 2.8 °C 991.8 hPa NE 3.7 km/h 3.9 km/h 85 % 0.0 mm
23:55 6.3 °C 2.2 °C 995.8 hPa NNE 4.8 km/h 9.7 km/h 75 % 0.0 mm
Meteo Sesrovires
Elogis d' Weather Underground - 3.5 mb

Guio original per  Jim McMurry - jmcmurry@mwt.net Adaptat per a la plantilla per  Wim van der Kuil - Leuven-Template.eu

Trobareu la nostra informacio del temps tambe a:

Weather Underground

AWEKAS